Terminal Aerodrome Forecast
Issued by NWS

Home | Current Version | Previous Version | Text Only | Print | Product List | Glossary On
Versions: 1 2 3 4 5 6 7 8 9 10 11 12 13 14 15 16
170
FTUS45 KTFX 141842 AAA
TAFGTF
TAF AMD
KGTF 141842Z 1419/1518 26025G38KT P6SM SCT150
     FM150100 25014KT P6SM BKN150
     FM150500 23014KT P6SM BKN120
     FM150900 23015G28KT P6SM VCSH OVC050=

USA.gov is the U.S. government's official web portal to all federal, state and local government web resources and services.